sensor_id;sensor_type;location;lat;lon;timestamp;temperature;humidity
21108;DHT22;10712;52.944;9.098;2024-03-08T00:00:16;0.60;89.10
21108;DHT22;10712;52.944;9.098;2024-03-08T00:02:46;0.60;89.00
21108;DHT22;10712;52.944;9.098;2024-03-08T00:05:14;0.50;89.00
21108;DHT22;10712;52.944;9.098;2024-03-08T00:07:40;0.50;89.00
21108;DHT22;10712;52.944;9.098;2024-03-08T00:10:08;0.50;89.10
21108;DHT22;10712;52.944;9.098;2024-03-08T00:12:42;0.50;89.00
21108;DHT22;10712;52.944;9.098;2024-03-08T00:15:10;0.50;89.00
21108;DHT22;10712;52.944;9.098;2024-03-08T00:17:42;0.50;89.00
21108;DHT22;10712;52.944;9.098;2024-03-08T00:20:08;0.50;89.00
21108;DHT22;10712;52.944;9.098;2024-03-08T00:22:35;0.50;89.10
21108;DHT22;10712;52.944;9.098;2024-03-08T00:25:05;0.60;89.10
21108;DHT22;10712;52.944;9.098;2024-03-08T00:27:34;0.60;89.00
21108;DHT22;10712;52.944;9.098;2024-03-08T00:30:01;0.60;89.00
21108;DHT22;10712;52.944;9.098;2024-03-08T00:32:27;0.60;89.00
21108;DHT22;10712;52.944;9.098;2024-03-08T00:34:55;0.60;88.90
21108;DHT22;10712;52.944;9.098;2024-03-08T00:37:21;0.60;88.90
21108;DHT22;10712;52.944;9.098;2024-03-08T00:39:51;0.60;88.90
21108;DHT22;10712;52.944;9.098;2024-03-08T00:42:18;0.60;88.90
21108;DHT22;10712;52.944;9.098;2024-03-08T00:44:45;0.60;88.90
21108;DHT22;10712;52.944;9.098;2024-03-08T00:47:11;0.60;88.90
21108;DHT22;10712;52.944;9.098;2024-03-08T00:49:37;0.70;88.70
21108;DHT22;10712;52.944;9.098;2024-03-08T00:52:07;0.70;88.60
21108;DHT22;10712;52.944;9.098;2024-03-08T00:54:34;0.60;88.40
21108;DHT22;10712;52.944;9.098;2024-03-08T00:57:01;0.60;88.40
21108;DHT22;10712;52.944;9.098;2024-03-08T00:59:31;0.60;88.30
21108;DHT22;10712;52.944;9.098;2024-03-08T01:01:58;0.60;88.30
21108;DHT22;10712;52.944;9.098;2024-03-08T01:04:26;0.50;88.30
21108;DHT22;10712;52.944;9.098;2024-03-08T01:06:55;0.50;88.40
21108;DHT22;10712;52.944;9.098;2024-03-08T01:09:22;0.50;88.50
21108;DHT22;10712;52.944;9.098;2024-03-08T01:11:49;0.40;88.60
21108;DHT22;10712;52.944;9.098;2024-03-08T01:14:16;0.40;88.50
21108;DHT22;10712;52.944;9.098;2024-03-08T01:16:42;0.40;88.60
21108;DHT22;10712;52.944;9.098;2024-03-08T01:19:07;0.40;88.70
21108;DHT22;10712;52.944;9.098;2024-03-08T01:21:34;0.40;88.70
21108;DHT22;10712;52.944;9.098;2024-03-08T01:24:00;0.40;88.70
21108;DHT22;10712;52.944;9.098;2024-03-08T01:26:26;0.40;88.70
21108;DHT22;10712;52.944;9.098;2024-03-08T01:28:51;0.30;88.60
21108;DHT22;10712;52.944;9.098;2024-03-08T01:31:17;0.30;88.60
21108;DHT22;10712;52.944;9.098;2024-03-08T01:33:43;0.30;88.60
21108;DHT22;10712;52.944;9.098;2024-03-08T01:36:08;0.30;88.80
21108;DHT22;10712;52.944;9.098;2024-03-08T01:38:34;0.30;88.80
21108;DHT22;10712;52.944;9.098;2024-03-08T01:41:01;0.30;88.90
21108;DHT22;10712;52.944;9.098;2024-03-08T01:43:28;0.30;88.80
21108;DHT22;10712;52.944;9.098;2024-03-08T01:45:56;0.30;88.70
21108;DHT22;10712;52.944;9.098;2024-03-08T01:48:25;0.20;88.70
21108;DHT22;10712;52.944;9.098;2024-03-08T01:50:53;0.20;88.70
21108;DHT22;10712;52.944;9.098;2024-03-08T01:53:20;0.20;88.70
21108;DHT22;10712;52.944;9.098;2024-03-08T01:55:49;0.20;88.60
21108;DHT22;10712;52.944;9.098;2024-03-08T01:58:16;0.20;88.60
21108;DHT22;10712;52.944;9.098;2024-03-08T02:00:48;0.10;88.60
21108;DHT22;10712;52.944;9.098;2024-03-08T02:03:18;0.10;88.50
21108;DHT22;10712;52.944;9.098;2024-03-08T02:05:44;0.10;88.50
21108;DHT22;10712;52.944;9.098;2024-03-08T02:08:10;0.00;88.50
21108;DHT22;10712;52.944;9.098;2024-03-08T02:10:49;0.00;88.80
21108;DHT22;10712;52.944;9.098;2024-03-08T02:13:16;0.00;88.60
21108;DHT22;10712;52.944;9.098;2024-03-08T02:18:28;0.00;88.80
21108;DHT22;10712;52.944;9.098;2024-03-08T02:21:01;0.00;88.80
21108;DHT22;10712;52.944;9.098;2024-03-08T02:23:29;0.00;88.80
21108;DHT22;10712;52.944;9.098;2024-03-08T02:25:56;0.00;88.50
21108;DHT22;10712;52.944;9.098;2024-03-08T02:28:24;0.00;88.40
21108;DHT22;10712;52.944;9.098;2024-03-08T02:30:53;-0.10;88.40
21108;DHT22;10712;52.944;9.098;2024-03-08T02:33:23;-0.10;88.50
21108;DHT22;10712;52.944;9.098;2024-03-08T02:35:49;-0.10;88.50
21108;DHT22;10712;52.944;9.098;2024-03-08T02:38:20;-0.10;88.50
21108;DHT22;10712;52.944;9.098;2024-03-08T02:40:49;-0.10;88.60
21108;DHT22;10712;52.944;9.098;2024-03-08T02:43:18;-0.10;88.90
21108;DHT22;10712;52.944;9.098;2024-03-08T02:45:45;-0.10;88.90
21108;DHT22;10712;52.944;9.098;2024-03-08T02:48:13;-0.10;88.80
21108;DHT22;10712;52.944;9.098;2024-03-08T02:50:39;-0.10;88.80
21108;DHT22;10712;52.944;9.098;2024-03-08T02:53:08;-0.10;88.80
21108;DHT22;10712;52.944;9.098;2024-03-08T02:55:33;-0.10;88.80
21108;DHT22;10712;52.944;9.098;2024-03-08T02:58:02;-0.10;88.90
21108;DHT22;10712;52.944;9.098;2024-03-08T03:00:34;-0.10;89.00
21108;DHT22;10712;52.944;9.098;2024-03-08T03:03:00;-0.10;89.10
21108;DHT22;10712;52.944;9.098;2024-03-08T03:05:28;-0.10;89.10
21108;DHT22;10712;52.944;9.098;2024-03-08T03:07:55;-0.10;89.20
21108;DHT22;10712;52.944;9.098;2024-03-08T03:10:21;-0.10;89.30
21108;DHT22;10712;52.944;9.098;2024-03-08T03:12:48;-0.20;89.30
21108;DHT22;10712;52.944;9.098;2024-03-08T03:15:14;-0.20;89.30
21108;DHT22;10712;52.944;9.098;2024-03-08T03:17:49;-0.20;89.40
21108;DHT22;10712;52.944;9.098;2024-03-08T03:20:17;-0.20;89.50
21108;DHT22;10712;52.944;9.098;2024-03-08T03:22:51;-0.20;89.50
21108;DHT22;10712;52.944;9.098;2024-03-08T03:25:19;-0.20;89.50
21108;DHT22;10712;52.944;9.098;2024-03-08T03:27:52;-0.30;89.50
21108;DHT22;10712;52.944;9.098;2024-03-08T03:30:18;-0.30;89.50
21108;DHT22;10712;52.944;9.098;2024-03-08T03:32:47;-0.20;89.70
21108;DHT22;10712;52.944;9.098;2024-03-08T03:35:20;-0.20;89.90
21108;DHT22;10712;52.944;9.098;2024-03-08T03:37:47;-0.20;89.90
21108;DHT22;10712;52.944;9.098;2024-03-08T03:40:33;-0.20;89.90
21108;DHT22;10712;52.944;9.098;2024-03-08T03:42:59;-0.20;89.70
21108;DHT22;10712;52.944;9.098;2024-03-08T03:45:27;-0.20;89.60
21108;DHT22;10712;52.944;9.098;2024-03-08T03:47:53;-0.20;89.60
21108;DHT22;10712;52.944;9.098;2024-03-08T03:50:19;-0.20;89.60
21108;DHT22;10712;52.944;9.098;2024-03-08T03:52:46;-0.30;89.50
21108;DHT22;10712;52.944;9.098;2024-03-08T03:55:12;-0.30;89.60
21108;DHT22;10712;52.944;9.098;2024-03-08T03:57:39;-0.30;89.60
21108;DHT22;10712;52.944;9.098;2024-03-08T04:00:06;-0.30;89.60
21108;DHT22;10712;52.944;9.098;2024-03-08T04:02:40;-0.30;89.50
21108;DHT22;10712;52.944;9.098;2024-03-08T04:05:09;-0.40;89.50
21108;DHT22;10712;52.944;9.098;2024-03-08T04:07:37;-0.40;89.70
21108;DHT22;10712;52.944;9.098;2024-03-08T04:10:03;-0.40;89.80
21108;DHT22;10712;52.944;9.098;2024-03-08T04:12:35;-0.40;89.80
21108;DHT22;10712;52.944;9.098;2024-03-08T04:15:01;-0.40;89.90
21108;DHT22;10712;52.944;9.098;2024-03-08T04:17:27;-0.40;89.90
21108;DHT22;10712;52.944;9.098;2024-03-08T04:19:53;-0.40;89.90
21108;DHT22;10712;52.944;9.098;2024-03-08T04:22:19;-0.40;89.80
21108;DHT22;10712;52.944;9.098;2024-03-08T04:24:46;-0.40;89.80
21108;DHT22;10712;52.944;9.098;2024-03-08T04:27:13;-0.40;89.60
21108;DHT22;10712;52.944;9.098;2024-03-08T04:29:39;-0.50;89.60
21108;DHT22;10712;52.944;9.098;2024-03-08T04:32:06;-0.50;89.50
21108;DHT22;10712;52.944;9.098;2024-03-08T04:34:34;-0.50;89.40
21108;DHT22;10712;52.944;9.098;2024-03-08T04:37:00;-0.60;89.50
21108;DHT22;10712;52.944;9.098;2024-03-08T04:39:27;-0.60;89.50
21108;DHT22;10712;52.944;9.098;2024-03-08T04:42:02;-0.60;89.50
21108;DHT22;10712;52.944;9.098;2024-03-08T04:44:30;-0.70;89.60
21108;DHT22;10712;52.944;9.098;2024-03-08T04:46:57;-0.70;89.70
21108;DHT22;10712;52.944;9.098;2024-03-08T04:49:22;-0.70;89.70
21108;DHT22;10712;52.944;9.098;2024-03-08T04:51:48;-0.80;89.80
21108;DHT22;10712;52.944;9.098;2024-03-08T04:54:14;-0.80;90.10
21108;DHT22;10712;52.944;9.098;2024-03-08T04:56:40;-0.80;90.10
21108;DHT22;10712;52.944;9.098;2024-03-08T04:59:06;-0.80;90.10
21108;DHT22;10712;52.944;9.098;2024-03-08T05:01:34;-0.90;90.20
21108;DHT22;10712;52.944;9.098;2024-03-08T05:04:03;-0.90;90.30
21108;DHT22;10712;52.944;9.098;2024-03-08T05:06:29;-0.90;90.40
21108;DHT22;10712;52.944;9.098;2024-03-08T05:08:56;-0.90;90.50
21108;DHT22;10712;52.944;9.098;2024-03-08T05:11:21;-0.90;90.70
21108;DHT22;10712;52.944;9.098;2024-03-08T05:13:47;-0.90;91.00
21108;DHT22;10712;52.944;9.098;2024-03-08T05:16:13;-0.80;91.10
21108;DHT22;10712;52.944;9.098;2024-03-08T05:18:41;-0.80;91.10
21108;DHT22;10712;52.944;9.098;2024-03-08T05:21:07;-0.80;91.10
21108;DHT22;10712;52.944;9.098;2024-03-08T05:23:35;-0.70;91.10
21108;DHT22;10712;52.944;9.098;2024-03-08T05:26:00;-0.70;91.00
21108;DHT22;10712;52.944;9.098;2024-03-08T05:28:26;-0.70;91.00
21108;DHT22;10712;52.944;9.098;2024-03-08T05:30:52;-0.70;91.00
21108;DHT22;10712;52.944;9.098;2024-03-08T05:33:18;-0.70;91.00
21108;DHT22;10712;52.944;9.098;2024-03-08T05:35:45;-0.70;91.00
21108;DHT22;10712;52.944;9.098;2024-03-08T05:38:10;-0.70;91.10
21108;DHT22;10712;52.944;9.098;2024-03-08T05:40:38;-0.70;91.20
21108;DHT22;10712;52.944;9.098;2024-03-08T05:43:04;-0.70;91.20
21108;DHT22;10712;52.944;9.098;2024-03-08T05:45:30;-0.70;91.30
21108;DHT22;10712;52.944;9.098;2024-03-08T05:47:56;-0.70;91.30
21108;DHT22;10712;52.944;9.098;2024-03-08T05:50:22;-0.80;91.20
21108;DHT22;10712;52.944;9.098;2024-03-08T05:52:48;-0.80;91.30
21108;DHT22;10712;52.944;9.098;2024-03-08T05:55:14;-0.80;91.40
21108;DHT22;10712;52.944;9.098;2024-03-08T05:57:41;-0.80;91.40
21108;DHT22;10712;52.944;9.098;2024-03-08T06:00:08;-0.90;91.50
21108;DHT22;10712;52.944;9.098;2024-03-08T06:02:39;-0.90;91.70
21108;DHT22;10712;52.944;9.098;2024-03-08T06:05:09;-0.90;91.90
21108;DHT22;10712;52.944;9.098;2024-03-08T06:07:36;-0.80;92.00
21108;DHT22;10712;52.944;9.098;2024-03-08T06:10:09;-0.80;92.20
21108;DHT22;10712;52.944;9.098;2024-03-08T06:12:36;-0.80;92.20
21108;DHT22;10712;52.944;9.098;2024-03-08T06:15:08;-0.70;92.30
21108;DHT22;10712;52.944;9.098;2024-03-08T06:17:36;-0.70;92.40
21108;DHT22;10712;52.944;9.098;2024-03-08T06:20:03;-0.70;92.60
21108;DHT22;10712;52.944;9.098;2024-03-08T06:22:29;-0.60;92.60
21108;DHT22;10712;52.944;9.098;2024-03-08T06:24:56;-0.60;92.40
21108;DHT22;10712;52.944;9.098;2024-03-08T06:27:22;-0.60;92.40
21108;DHT22;10712;52.944;9.098;2024-03-08T06:29:48;-0.60;92.50
21108;DHT22;10712;52.944;9.098;2024-03-08T06:32:14;-0.50;92.50
21108;DHT22;10712;52.944;9.098;2024-03-08T06:34:41;-0.50;92.50
21108;DHT22;10712;52.944;9.098;2024-03-08T06:37:07;-0.40;92.40
21108;DHT22;10712;52.944;9.098;2024-03-08T06:39:32;-0.40;92.40
21108;DHT22;10712;52.944;9.098;2024-03-08T06:41:59;-0.40;92.30
21108;DHT22;10712;52.944;9.098;2024-03-08T06:44:25;-0.30;92.30
21108;DHT22;10712;52.944;9.098;2024-03-08T06:46:51;-0.30;92.30
21108;DHT22;10712;52.944;9.098;2024-03-08T06:49:17;-0.30;92.40
21108;DHT22;10712;52.944;9.098;2024-03-08T06:51:42;-0.20;92.40
21108;DHT22;10712;52.944;9.098;2024-03-08T06:54:08;-0.10;92.30
21108;DHT22;10712;52.944;9.098;2024-03-08T06:56:37;-0.10;92.20
21108;DHT22;10712;52.944;9.098;2024-03-08T06:59:03;0.00;92.10
21108;DHT22;10712;52.944;9.098;2024-03-08T07:01:29;0.00;92.00
21108;DHT22;10712;52.944;9.098;2024-03-08T07:04:00;0.10;91.90
21108;DHT22;10712;52.944;9.098;2024-03-08T07:06:30;0.10;91.70
21108;DHT22;10712;52.944;9.098;2024-03-08T07:08:59;0.20;91.60
21108;DHT22;10712;52.944;9.098;2024-03-08T07:11:24;0.20;91.50
21108;DHT22;10712;52.944;9.098;2024-03-08T07:13:50;0.30;91.50
21108;DHT22;10712;52.944;9.098;2024-03-08T07:16:16;0.30;91.50
21108;DHT22;10712;52.944;9.098;2024-03-08T07:18:42;0.40;91.40
21108;DHT22;10712;52.944;9.098;2024-03-08T07:21:09;0.40;91.30
21108;DHT22;10712;52.944;9.098;2024-03-08T07:23:38;0.50;91.10
21108;DHT22;10712;52.944;9.098;2024-03-08T07:26:24;0.60;91.00
21108;DHT22;10712;52.944;9.098;2024-03-08T07:28:50;0.60;90.90
21108;DHT22;10712;52.944;9.098;2024-03-08T07:31:15;0.70;90.80
21108;DHT22;10712;52.944;9.098;2024-03-08T07:33:52;0.80;90.70
21108;DHT22;10712;52.944;9.098;2024-03-08T07:36:21;0.80;90.50
21108;DHT22;10712;52.944;9.098;2024-03-08T07:38:47;0.90;90.30
21108;DHT22;10712;52.944;9.098;2024-03-08T07:41:14;0.90;90.00
21108;DHT22;10712;52.944;9.098;2024-03-08T07:43:40;1.00;89.70
21108;DHT22;10712;52.944;9.098;2024-03-08T07:46:06;1.00;89.60
21108;DHT22;10712;52.944;9.098;2024-03-08T07:48:32;1.10;89.40
21108;DHT22;10712;52.944;9.098;2024-03-08T07:50:58;1.20;89.00
21108;DHT22;10712;52.944;9.098;2024-03-08T07:53:24;1.20;88.70
21108;DHT22;10712;52.944;9.098;2024-03-08T07:55:50;1.30;88.40
21108;DHT22;10712;52.944;9.098;2024-03-08T07:58:15;1.30;88.20
21108;DHT22;10712;52.944;9.098;2024-03-08T08:00:42;1.40;87.80
21108;DHT22;10712;52.944;9.098;2024-03-08T08:03:08;1.50;87.60
21108;DHT22;10712;52.944;9.098;2024-03-08T08:05:34;1.60;87.20
21108;DHT22;10712;52.944;9.098;2024-03-08T08:08:01;1.60;87.00
21108;DHT22;10712;52.944;9.098;2024-03-08T08:10:34;1.70;86.70
21108;DHT22;10712;52.944;9.098;2024-03-08T08:13:00;1.80;86.50
21108;DHT22;10712;52.944;9.098;2024-03-08T08:15:25;1.80;86.20
21108;DHT22;10712;52.944;9.098;2024-03-08T08:17:53;1.90;85.60
21108;DHT22;10712;52.944;9.098;2024-03-08T08:20:19;2.00;85.20
21108;DHT22;10712;52.944;9.098;2024-03-08T08:22:45;2.10;85.00
21108;DHT22;10712;52.944;9.098;2024-03-08T08:25:10;2.10;84.80
21108;DHT22;10712;52.944;9.098;2024-03-08T08:27:41;2.20;84.60
21108;DHT22;10712;52.944;9.098;2024-03-08T08:30:10;2.20;84.20
21108;DHT22;10712;52.944;9.098;2024-03-08T08:32:37;2.30;83.90
21108;DHT22;10712;52.944;9.098;2024-03-08T08:35:05;2.40;83.40
21108;DHT22;10712;52.944;9.098;2024-03-08T08:37:32;2.50;82.40
21108;DHT22;10712;52.944;9.098;2024-03-08T08:39:58;2.60;82.20
21108;DHT22;10712;52.944;9.098;2024-03-08T08:42:24;2.70;82.20
21108;DHT22;10712;52.944;9.098;2024-03-08T08:44:51;2.70;82.10
21108;DHT22;10712;52.944;9.098;2024-03-08T08:47:17;2.80;81.70
21108;DHT22;10712;52.944;9.098;2024-03-08T08:49:46;2.80;81.90
21108;DHT22;10712;52.944;9.098;2024-03-08T08:52:12;2.90;81.50
21108;DHT22;10712;52.944;9.098;2024-03-08T08:54:38;3.00;81.40
21108;DHT22;10712;52.944;9.098;2024-03-08T08:57:04;3.00;81.10
21108;DHT22;10712;52.944;9.098;2024-03-08T08:59:34;3.10;80.90
21108;DHT22;10712;52.944;9.098;2024-03-08T09:02:05;3.20;80.70
21108;DHT22;10712;52.944;9.098;2024-03-08T09:04:32;3.20;80.60
21108;DHT22;10712;52.944;9.098;2024-03-08T09:06:58;3.30;80.40
21108;DHT22;10712;52.944;9.098;2024-03-08T09:09:24;3.40;79.90
21108;DHT22;10712;52.944;9.098;2024-03-08T09:11:51;3.50;79.70
21108;DHT22;10712;52.944;9.098;2024-03-08T09:14:17;3.50;79.50
21108;DHT22;10712;52.944;9.098;2024-03-08T09:16:42;3.60;79.00
21108;DHT22;10712;52.944;9.098;2024-03-08T09:19:08;3.60;79.00
21108;DHT22;10712;52.944;9.098;2024-03-08T09:21:36;3.70;79.00
21108;DHT22;10712;52.944;9.098;2024-03-08T09:24:03;3.80;78.50
21108;DHT22;10712;52.944;9.098;2024-03-08T09:26:29;3.90;77.90
21108;DHT22;10712;52.944;9.098;2024-03-08T09:28:54;4.00;76.50
21108;DHT22;10712;52.944;9.098;2024-03-08T09:31:21;4.10;76.60
21108;DHT22;10712;52.944;9.098;2024-03-08T09:33:47;4.10;77.00
21108;DHT22;10712;52.944;9.098;2024-03-08T09:36:13;4.10;76.90
21108;DHT22;10712;52.944;9.098;2024-03-08T09:38:40;4.20;76.70
21108;DHT22;10712;52.944;9.098;2024-03-08T09:41:06;4.20;76.20
21108;DHT22;10712;52.944;9.098;2024-03-08T09:43:32;4.30;76.00
21108;DHT22;10712;52.944;9.098;2024-03-08T09:45:58;4.40;76.10
21108;DHT22;10712;52.944;9.098;2024-03-08T09:48:25;4.50;74.80
21108;DHT22;10712;52.944;9.098;2024-03-08T09:50:52;4.60;74.20
21108;DHT22;10712;52.944;9.098;2024-03-08T09:53:17;4.70;73.70
21108;DHT22;10712;52.944;9.098;2024-03-08T09:55:44;4.70;73.70
21108;DHT22;10712;52.944;9.098;2024-03-08T09:58:12;4.80;74.50
21108;DHT22;10712;52.944;9.098;2024-03-08T10:00:53;4.80;75.00
21108;DHT22;10712;52.944;9.098;2024-03-08T10:03:23;4.90;74.60
21108;DHT22;10712;52.944;9.098;2024-03-08T10:05:49;5.00;74.10
21108;DHT22;10712;52.944;9.098;2024-03-08T10:08:15;5.00;74.00
21108;DHT22;10712;52.944;9.098;2024-03-08T10:10:41;5.20;73.20
21108;DHT22;10712;52.944;9.098;2024-03-08T10:13:09;5.20;73.40
21108;DHT22;10712;52.944;9.098;2024-03-08T10:15:39;5.30;72.40
21108;DHT22;10712;52.944;9.098;2024-03-08T10:18:06;5.40;72.30
21108;DHT22;10712;52.944;9.098;2024-03-08T10:20:32;5.40;72.50
21108;DHT22;10712;52.944;9.098;2024-03-08T10:23:00;5.50;72.40
21108;DHT22;10712;52.944;9.098;2024-03-08T10:25:29;5.50;71.40
21108;DHT22;10712;52.944;9.098;2024-03-08T10:27:57;5.60;70.20
21108;DHT22;10712;52.944;9.098;2024-03-08T10:30:23;5.60;71.50
21108;DHT22;10712;52.944;9.098;2024-03-08T10:32:49;5.70;71.30
21108;DHT22;10712;52.944;9.098;2024-03-08T10:35:15;5.70;70.70
21108;DHT22;10712;52.944;9.098;2024-03-08T10:37:46;5.80;70.20
21108;DHT22;10712;52.944;9.098;2024-03-08T10:40:16;5.80;70.30
21108;DHT22;10712;52.944;9.098;2024-03-08T10:42:55;5.90;70.50
21108;DHT22;10712;52.944;9.098;2024-03-08T10:45:30;5.90;70.40
21108;DHT22;10712;52.944;9.098;2024-03-08T10:50:53;6.00;71.60
21108;DHT22;10712;52.944;9.098;2024-03-08T10:53:20;6.10;71.30
21108;DHT22;10712;52.944;9.098;2024-03-08T10:55:49;6.10;71.00
21108;DHT22;10712;52.944;9.098;2024-03-08T10:58:20;6.10;70.90
21108;DHT22;10712;52.944;9.098;2024-03-08T11:00:48;6.20;70.10
21108;DHT22;10712;52.944;9.098;2024-03-08T11:06:22;6.30;70.20
21108;DHT22;10712;52.944;9.098;2024-03-08T11:08:55;6.30;69.30
21108;DHT22;10712;52.944;9.098;2024-03-08T11:13:58;6.40;69.10
21108;DHT22;10712;52.944;9.098;2024-03-08T11:18:54;6.60;67.20
21108;DHT22;10712;52.944;9.098;2024-03-08T11:21:25;6.60;67.50
21108;DHT22;10712;52.944;9.098;2024-03-08T11:24:08;6.70;67.20
21108;DHT22;10712;52.944;9.098;2024-03-08T11:26:39;6.70;67.80
21108;DHT22;10712;52.944;9.098;2024-03-08T11:34:46;7.00;65.50
21108;DHT22;10712;52.944;9.098;2024-03-08T11:37:17;7.10;65.20
21108;DHT22;10712;52.944;9.098;2024-03-08T11:39:50;7.10;65.30
21108;DHT22;10712;52.944;9.098;2024-03-08T11:42:18;7.10;66.10
21108;DHT22;10712;52.944;9.098;2024-03-08T11:44:45;7.10;65.80
21108;DHT22;10712;52.944;9.098;2024-03-08T11:47:14;7.20;65.40
21108;DHT22;10712;52.944;9.098;2024-03-08T11:49:40;7.20;66.10
21108;DHT22;10712;52.944;9.098;2024-03-08T11:52:16;7.20;66.20
21108;DHT22;10712;52.944;9.098;2024-03-08T11:54:52;7.20;66.40
21108;DHT22;10712;52.944;9.098;2024-03-08T11:57:23;7.20;66.70
21108;DHT22;10712;52.944;9.098;2024-03-08T11:59:54;7.30;66.70
21108;DHT22;10712;52.944;9.098;2024-03-08T12:02:24;7.30;66.00
21108;DHT22;10712;52.944;9.098;2024-03-08T12:04:57;7.40;66.10
21108;DHT22;10712;52.944;9.098;2024-03-08T12:07:29;7.50;65.70
21108;DHT22;10712;52.944;9.098;2024-03-08T12:10:22;7.50;65.40
21108;DHT22;10712;52.944;9.098;2024-03-08T12:12:50;7.60;65.40
21108;DHT22;10712;52.944;9.098;2024-03-08T12:15:22;7.60;65.60
21108;DHT22;10712;52.944;9.098;2024-03-08T12:17:50;7.60;65.80
21108;DHT22;10712;52.944;9.098;2024-03-08T12:20:22;7.60;65.20
21108;DHT22;10712;52.944;9.098;2024-03-08T12:22:52;7.70;64.70
21108;DHT22;10712;52.944;9.098;2024-03-08T12:25:20;7.70;64.10
21108;DHT22;10712;52.944;9.098;2024-03-08T12:27:46;7.80;64.10
21108;DHT22;10712;52.944;9.098;2024-03-08T12:32:59;8.00;64.40
21108;DHT22;10712;52.944;9.098;2024-03-08T12:35:30;8.00;64.00
21108;DHT22;10712;52.944;9.098;2024-03-08T12:37:59;8.10;63.80
21108;DHT22;10712;52.944;9.098;2024-03-08T12:40:27;8.10;64.10
21108;DHT22;10712;52.944;9.098;2024-03-08T12:42:54;8.10;64.80
21108;DHT22;10712;52.944;9.098;2024-03-08T12:45:24;8.00;64.90
21108;DHT22;10712;52.944;9.098;2024-03-08T12:47:54;8.00;64.80
21108;DHT22;10712;52.944;9.098;2024-03-08T12:50:22;8.00;65.00
21108;DHT22;10712;52.944;9.098;2024-03-08T12:52:49;8.10;65.60
21108;DHT22;10712;52.944;9.098;2024-03-08T12:55:15;8.10;65.30
21108;DHT22;10712;52.944;9.098;2024-03-08T12:57:44;8.10;65.90
21108;DHT22;10712;52.944;9.098;2024-03-08T13:00:11;8.10;66.20
21108;DHT22;10712;52.944;9.098;2024-03-08T13:02:47;8.20;66.40
21108;DHT22;10712;52.944;9.098;2024-03-08T13:05:14;8.20;65.80
21108;DHT22;10712;52.944;9.098;2024-03-08T13:07:41;8.30;65.40
21108;DHT22;10712;52.944;9.098;2024-03-08T13:10:12;8.30;65.30
21108;DHT22;10712;52.944;9.098;2024-03-08T13:12:43;8.30;66.50
21108;DHT22;10712;52.944;9.098;2024-03-08T13:15:09;8.30;65.20
21108;DHT22;10712;52.944;9.098;2024-03-08T13:17:40;8.40;64.90
21108;DHT22;10712;52.944;9.098;2024-03-08T13:20:09;8.40;65.50
21108;DHT22;10712;52.944;9.098;2024-03-08T13:22:41;8.40;65.50
21108;DHT22;10712;52.944;9.098;2024-03-08T13:25:08;8.40;66.10
21108;DHT22;10712;52.944;9.098;2024-03-08T13:27:42;8.40;66.30
21108;DHT22;10712;52.944;9.098;2024-03-08T13:30:09;8.50;65.20
21108;DHT22;10712;52.944;9.098;2024-03-08T13:32:44;8.50;64.60
21108;DHT22;10712;52.944;9.098;2024-03-08T13:35:13;8.50;65.30
21108;DHT22;10712;52.944;9.098;2024-03-08T13:37:42;8.60;64.70
21108;DHT22;10712;52.944;9.098;2024-03-08T13:40:10;8.60;64.30
21108;DHT22;10712;52.944;9.098;2024-03-08T13:42:42;8.60;64.60
21108;DHT22;10712;52.944;9.098;2024-03-08T13:45:11;8.50;64.90
21108;DHT22;10712;52.944;9.098;2024-03-08T13:47:37;8.50;65.30
21108;DHT22;10712;52.944;9.098;2024-03-08T13:50:07;8.50;65.70
21108;DHT22;10712;52.944;9.098;2024-03-08T13:52:38;8.60;65.80
21108;DHT22;10712;52.944;9.098;2024-03-08T13:55:05;8.60;65.60
21108;DHT22;10712;52.944;9.098;2024-03-08T13:57:32;8.70;65.70
21108;DHT22;10712;52.944;9.098;2024-03-08T13:59:58;8.70;65.60
21108;DHT22;10712;52.944;9.098;2024-03-08T14:02:25;8.70;65.40
21108;DHT22;10712;52.944;9.098;2024-03-08T14:04:54;8.70;65.70
21108;DHT22;10712;52.944;9.098;2024-03-08T14:07:23;8.80;65.00
21108;DHT22;10712;52.944;9.098;2024-03-08T14:09:49;8.80;64.30
21108;DHT22;10712;52.944;9.098;2024-03-08T14:12:15;8.90;64.60
21108;DHT22;10712;52.944;9.098;2024-03-08T14:14:41;8.90;64.30
21108;DHT22;10712;52.944;9.098;2024-03-08T14:17:10;8.90;63.90
21108;DHT22;10712;52.944;9.098;2024-03-08T14:19:39;8.90;64.30
21108;DHT22;10712;52.944;9.098;2024-03-08T14:22:05;8.90;64.70
21108;DHT22;10712;52.944;9.098;2024-03-08T14:24:31;8.90;64.60
21108;DHT22;10712;52.944;9.098;2024-03-08T14:27:01;8.80;63.90
21108;DHT22;10712;52.944;9.098;2024-03-08T14:29:29;8.90;64.10
21108;DHT22;10712;52.944;9.098;2024-03-08T14:31:58;8.80;64.40
21108;DHT22;10712;52.944;9.098;2024-03-08T14:34:25;8.80;64.80
21108;DHT22;10712;52.944;9.098;2024-03-08T14:36:55;8.90;64.10
21108;DHT22;10712;52.944;9.098;2024-03-08T14:39:21;8.90;64.30
21108;DHT22;10712;52.944;9.098;2024-03-08T14:41:55;8.90;64.60
21108;DHT22;10712;52.944;9.098;2024-03-08T14:44:22;8.90;65.00
21108;DHT22;10712;52.944;9.098;2024-03-08T14:46:52;8.80;64.80
21108;DHT22;10712;52.944;9.098;2024-03-08T14:49:18;8.80;64.70
21108;DHT22;10712;52.944;9.098;2024-03-08T14:51:47;8.80;64.50
21108;DHT22;10712;52.944;9.098;2024-03-08T14:54:12;8.70;64.50
21108;DHT22;10712;52.944;9.098;2024-03-08T14:56:39;8.70;64.80
21108;DHT22;10712;52.944;9.098;2024-03-08T14:59:08;8.70;64.90
21108;DHT22;10712;52.944;9.098;2024-03-08T15:01:35;8.70;64.10
21108;DHT22;10712;52.944;9.098;2024-03-08T15:04:02;8.60;64.10
21108;DHT22;10712;52.944;9.098;2024-03-08T15:06:37;8.60;64.30
21108;DHT22;10712;52.944;9.098;2024-03-08T15:09:05;8.60;64.40
21108;DHT22;10712;52.944;9.098;2024-03-08T15:11:38;8.60;64.30
21108;DHT22;10712;52.944;9.098;2024-03-08T15:14:05;8.60;64.40
21108;DHT22;10712;52.944;9.098;2024-03-08T15:16:37;8.50;64.70
21108;DHT22;10712;52.944;9.098;2024-03-08T15:19:05;8.50;65.10
21108;DHT22;10712;52.944;9.098;2024-03-08T15:21:31;8.50;64.80
21108;DHT22;10712;52.944;9.098;2024-03-08T15:23:57;8.40;65.30
21108;DHT22;10712;52.944;9.098;2024-03-08T15:26:23;8.40;65.00
21108;DHT22;10712;52.944;9.098;2024-03-08T15:28:51;8.40;65.00
21108;DHT22;10712;52.944;9.098;2024-03-08T15:31:19;8.40;64.80
21108;DHT22;10712;52.944;9.098;2024-03-08T15:33:46;8.40;64.10
21108;DHT22;10712;52.944;9.098;2024-03-08T15:36:18;8.40;64.50
21108;DHT22;10712;52.944;9.098;2024-03-08T15:38:46;8.40;64.70
21108;DHT22;10712;52.944;9.098;2024-03-08T15:41:13;8.40;64.90
21108;DHT22;10712;52.944;9.098;2024-03-08T15:43:40;8.40;64.90
21108;DHT22;10712;52.944;9.098;2024-03-08T15:46:07;8.40;64.70
21108;DHT22;10712;52.944;9.098;2024-03-08T15:48:34;8.30;64.60
21108;DHT22;10712;52.944;9.098;2024-03-08T15:51:04;8.30;64.50
21108;DHT22;10712;52.944;9.098;2024-03-08T15:53:33;8.30;64.50
21108;DHT22;10712;52.944;9.098;2024-03-08T15:56:01;8.30;63.90
21108;DHT22;10712;52.944;9.098;2024-03-08T15:58:36;8.30;64.20
21108;DHT22;10712;52.944;9.098;2024-03-08T16:01:03;8.30;64.20
21108;DHT22;10712;52.944;9.098;2024-03-08T16:03:32;8.20;64.20
21108;DHT22;10712;52.944;9.098;2024-03-08T16:06:17;8.20;64.30
21108;DHT22;10712;52.944;9.098;2024-03-08T16:08:54;8.20;64.40